Startpagina
METAR-TAF:

METAR-TAF

Vliegvelden :

Yap, Micronesië

breedte: 09-29N, lengte: 138-05E, hoogte: 28 m

Actueel weer

Dit bericht is 45 minuten geleden gemaakt, om 10:50 UTC
Wind 3 kt uit variabele richting
Temperatuur 27°C
Vochtigheid 89%
Druk 1012 hPa
Zicht: 19.3 km
Verspreide wolken op 1600 ft
Verspreide wolken op 30000 ft

METAR: PTYA 251050Z VRB03KT 12SM SCT016 SCT300 27/25 A2987 RMK SLP115 T02680251

Tijdstip: 21:35 (11:35 UTC)

Verwachting

Dit bericht is 6 uur en het 5 minuten geleden gemaakt, om 05:30 UTC
Verwachting geldig van 25 om 06 UTC tot 26 om 06 UTC
Wind 3 kt uit variabele richting
Zicht: 10 km
Verspreide wolken op 1600 ft

TAF: PTYA 250530Z 2506/2606 VRB03KT P6SM SCT016

Waarnemingen en weersverwachtingen van meer dan 4000 vliegvelden (METAR en TAF).

De beschikbare stations zijn de gele en rode punten op de kaart.

Ga met uw muis naar het station om de naam te zien.

Klik dan om waarnemingen en weersverwachtingen te zien.

kaart wijzigen: klik op de groene knoppen met een zwart kruis om in te zoomen, op de groene knop met een streepje om uit te zoomen of op de groene pijlen voor aangrenzende kaarten.


METAR-TAF: